sensor_id;sensor_type;location;lat;lon;timestamp;pressure;altitude;pressure_sealevel;temperature;humidity
37486;BME280;23341;50.296;18.960;2022-10-15T00:00:43;113062.75;;;-144.43;100.00
37486;BME280;23341;50.296;18.960;2022-10-15T00:06:09;113062.75;;;-144.43;100.00
37486;BME280;23341;50.296;18.960;2022-10-15T00:11:15;113062.75;;;-144.43;100.00
37486;BME280;23341;50.296;18.960;2022-10-15T00:16:21;113062.75;;;-144.43;100.00
37486;BME280;23341;50.296;18.960;2022-10-15T00:21:26;113062.75;;;-144.43;100.00
37486;BME280;23341;50.296;18.960;2022-10-15T00:26:30;113062.75;;;-144.43;100.00
37486;BME280;23341;50.296;18.960;2022-10-15T00:31:34;113062.75;;;-144.43;100.00
37486;BME280;23341;50.296;18.960;2022-10-15T00:36:41;113062.75;;;-144.43;100.00
37486;BME280;23341;50.296;18.960;2022-10-15T00:41:44;113062.75;;;-144.43;100.00
37486;BME280;23341;50.296;18.960;2022-10-15T00:46:50;113062.75;;;-144.43;100.00
37486;BME280;23341;50.296;18.960;2022-10-15T00:51:58;113062.75;;;-144.43;100.00
37486;BME280;23341;50.296;18.960;2022-10-15T00:57:03;113062.75;;;-144.43;100.00
37486;BME280;23341;50.296;18.960;2022-10-15T01:02:08;113062.75;;;-144.43;100.00
37486;BME280;23341;50.296;18.960;2022-10-15T01:07:14;113062.75;;;-144.43;100.00
37486;BME280;23341;50.296;18.960;2022-10-15T01:12:25;113062.75;;;-144.43;100.00
37486;BME280;23341;50.296;18.960;2022-10-15T01:17:36;113062.75;;;-144.43;100.00
37486;BME280;23341;50.296;18.960;2022-10-15T01:22:56;113062.75;;;-144.43;100.00
37486;BME280;23341;50.296;18.960;2022-10-15T01:28:14;113062.75;;;-144.43;100.00
37486;BME280;23341;50.296;18.960;2022-10-15T01:33:31;113062.75;;;-144.43;100.00
37486;BME280;23341;50.296;18.960;2022-10-15T01:38:47;113062.75;;;-144.43;100.00
37486;BME280;23341;50.296;18.960;2022-10-15T01:43:57;113062.75;;;-144.43;100.00
37486;BME280;23341;50.296;18.960;2022-10-15T01:49:22;113062.75;;;-144.43;100.00
37486;BME280;23341;50.296;18.960;2022-10-15T01:54:27;113062.75;;;-144.43;100.00
37486;BME280;23341;50.296;18.960;2022-10-15T01:59:31;113062.75;;;-144.43;100.00
37486;BME280;23341;50.296;18.960;2022-10-15T02:04:37;113062.75;;;-144.43;100.00
37486;BME280;23341;50.296;18.960;2022-10-15T02:09:45;113062.75;;;-144.43;100.00
37486;BME280;23341;50.296;18.960;2022-10-15T02:14:54;113062.75;;;-144.43;100.00
37486;BME280;23341;50.296;18.960;2022-10-15T02:20:10;113062.75;;;-144.43;100.00
37486;BME280;23341;50.296;18.960;2022-10-15T02:25:18;113062.75;;;-144.43;100.00
37486;BME280;23341;50.296;18.960;2022-10-15T02:30:24;113062.75;;;-144.43;100.00
37486;BME280;23341;50.296;18.960;2022-10-15T02:35:31;113062.75;;;-144.43;100.00
37486;BME280;23341;50.296;18.960;2022-10-15T02:40:40;113062.75;;;-144.43;100.00
37486;BME280;23341;50.296;18.960;2022-10-15T02:45:45;113062.75;;;-144.43;100.00
37486;BME280;23341;50.296;18.960;2022-10-15T02:50:51;113062.75;;;-144.43;100.00
37486;BME280;23341;50.296;18.960;2022-10-15T02:55:55;113062.75;;;-144.43;100.00
37486;BME280;23341;50.296;18.960;2022-10-15T03:08:12;113062.75;;;-144.43;100.00
37486;BME280;23341;50.296;18.960;2022-10-15T03:13:16;113062.75;;;-144.43;100.00
37486;BME280;23341;50.296;18.960;2022-10-15T03:18:25;113062.75;;;-144.43;100.00
37486;BME280;23341;50.296;18.960;2022-10-15T03:23:30;113062.75;;;-144.43;100.00
37486;BME280;23341;50.296;18.960;2022-10-15T03:28:45;113062.75;;;-144.43;100.00
37486;BME280;23341;50.296;18.960;2022-10-15T03:34:01;113062.75;;;-144.43;100.00
37486;BME280;23341;50.296;18.960;2022-10-15T03:39:07;113062.75;;;-144.43;100.00
37486;BME280;23341;50.296;18.960;2022-10-15T03:44:12;113062.75;;;-144.43;100.00
37486;BME280;23341;50.296;18.960;2022-10-15T03:49:19;113062.75;;;-144.43;100.00
37486;BME280;23341;50.296;18.960;2022-10-15T03:54:25;113062.75;;;-144.43;100.00
37486;BME280;23341;50.296;18.960;2022-10-15T03:59:28;113062.75;;;-144.43;100.00
37486;BME280;23341;50.296;18.960;2022-10-15T04:04:35;113062.75;;;-144.43;100.00
37486;BME280;23341;50.296;18.960;2022-10-15T04:09:40;113062.75;;;-144.43;100.00
37486;BME280;23341;50.296;18.960;2022-10-15T04:15:04;113062.75;;;-144.43;100.00
37486;BME280;23341;50.296;18.960;2022-10-15T04:20:09;113062.75;;;-144.43;100.00
37486;BME280;23341;50.296;18.960;2022-10-15T04:25:14;113062.75;;;-144.43;100.00
37486;BME280;23341;50.296;18.960;2022-10-15T04:30:18;113062.75;;;-144.43;100.00
37486;BME280;23341;50.296;18.960;2022-10-15T04:35:28;113062.75;;;-144.43;100.00
37486;BME280;23341;50.296;18.960;2022-10-15T04:40:43;113062.75;;;-144.43;100.00
37486;BME280;23341;50.296;18.960;2022-10-15T04:45:46;113062.75;;;-144.43;100.00
37486;BME280;23341;50.296;18.960;2022-10-15T04:50:53;113062.75;;;-144.43;100.00
37486;BME280;23341;50.296;18.960;2022-10-15T04:56:01;113062.75;;;-144.43;100.00
37486;BME280;23341;50.296;18.960;2022-10-15T05:01:06;113062.75;;;-144.43;100.00
37486;BME280;23341;50.296;18.960;2022-10-15T05:06:25;113062.75;;;-144.43;100.00
37486;BME280;23341;50.296;18.960;2022-10-15T05:11:37;113062.75;;;-144.43;100.00
37486;BME280;23341;50.296;18.960;2022-10-15T05:16:46;113062.75;;;-144.43;100.00
37486;BME280;23341;50.296;18.960;2022-10-15T05:21:51;113062.75;;;-144.43;100.00
37486;BME280;23341;50.296;18.960;2022-10-15T05:27:00;113062.75;;;-144.43;100.00
37486;BME280;23341;50.296;18.960;2022-10-15T05:32:06;113062.75;;;-144.43;100.00
37486;BME280;23341;50.296;18.960;2022-10-15T05:37:10;113062.75;;;-144.43;100.00
37486;BME280;23341;50.296;18.960;2022-10-15T05:42:16;113062.75;;;-144.43;100.00
37486;BME280;23341;50.296;18.960;2022-10-15T05:47:26;113062.75;;;-144.43;100.00
37486;BME280;23341;50.296;18.960;2022-10-15T05:52:46;113062.75;;;-144.43;100.00
37486;BME280;23341;50.296;18.960;2022-10-15T05:58:00;113062.75;;;-144.43;100.00
37486;BME280;23341;50.296;18.960;2022-10-15T06:03:03;113062.75;;;-144.43;99.58
37486;BME280;23341;50.296;18.960;2022-10-15T06:08:06;113062.75;;;-144.43;99.02
37486;BME280;23341;50.296;18.960;2022-10-15T06:13:11;113062.75;;;-144.43;98.39
37486;BME280;23341;50.296;18.960;2022-10-15T06:18:16;113062.75;;;-144.43;97.48
37486;BME280;23341;50.296;18.960;2022-10-15T06:23:20;113062.75;;;-144.43;95.35
37486;BME280;23341;50.296;18.960;2022-10-15T06:28:26;113062.75;;;-144.43;94.64
37486;BME280;23341;50.296;18.960;2022-10-15T06:33:30;113062.75;;;-144.43;94.43
37486;BME280;23341;50.296;18.960;2022-10-15T06:38:34;113062.75;;;-144.43;93.24
37486;BME280;23341;50.296;18.960;2022-10-15T06:43:39;113062.75;;;-144.43;92.18
37486;BME280;23341;50.296;18.960;2022-10-15T06:48:43;113062.75;;;-144.43;88.55
37486;BME280;23341;50.296;18.960;2022-10-15T06:53:46;113062.75;;;-144.43;87.64
37486;BME280;23341;50.296;18.960;2022-10-15T06:58:51;113062.75;;;-144.43;86.20
37486;BME280;23341;50.296;18.960;2022-10-15T07:03:54;113062.75;;;-144.43;84.97
37486;BME280;23341;50.296;18.960;2022-10-15T07:09:00;113062.75;;;-144.43;83.71
37486;BME280;23341;50.296;18.960;2022-10-15T07:14:05;113062.75;;;-144.43;83.78
37486;BME280;23341;50.296;18.960;2022-10-15T07:19:09;113062.75;;;-144.43;84.51
37486;BME280;23341;50.296;18.960;2022-10-15T07:24:12;113062.75;;;-144.43;85.55
37486;BME280;23341;50.296;18.960;2022-10-15T07:29:17;113062.75;;;-144.43;84.77
37486;BME280;23341;50.296;18.960;2022-10-15T07:34:22;113062.75;;;-144.43;85.48
37486;BME280;23341;50.296;18.960;2022-10-15T07:39:25;113062.75;;;-144.43;85.73
37486;BME280;23341;50.296;18.960;2022-10-15T07:44:30;113062.75;;;-144.43;84.71
37486;BME280;23341;50.296;18.960;2022-10-15T07:49:33;113062.75;;;-144.43;84.62
37486;BME280;23341;50.296;18.960;2022-10-15T07:54:38;113062.75;;;-144.43;83.65
37486;BME280;23341;50.296;18.960;2022-10-15T07:59:43;113062.75;;;-144.43;83.78
37486;BME280;23341;50.296;18.960;2022-10-15T08:04:46;113062.75;;;-144.43;84.22
37486;BME280;23341;50.296;18.960;2022-10-15T08:09:50;113062.75;;;-144.43;84.96
37486;BME280;23341;50.296;18.960;2022-10-15T08:14:55;113062.75;;;-144.43;86.16
37486;BME280;23341;50.296;18.960;2022-10-15T08:19:58;113062.75;;;-144.43;85.77
37486;BME280;23341;50.296;18.960;2022-10-15T08:25:02;113062.75;;;-144.43;86.09
37486;BME280;23341;50.296;18.960;2022-10-15T08:30:08;113062.75;;;-144.43;85.89
37486;BME280;23341;50.296;18.960;2022-10-15T08:35:12;113062.75;;;-144.43;84.79
37486;BME280;23341;50.296;18.960;2022-10-15T08:40:15;113062.75;;;-144.43;84.94
37486;BME280;23341;50.296;18.960;2022-10-15T08:45:24;113062.75;;;-144.43;83.18
37486;BME280;23341;50.296;18.960;2022-10-15T08:50:35;113062.75;;;-144.43;82.62
37486;BME280;23341;50.296;18.960;2022-10-15T08:55:43;113062.75;;;-144.43;80.43
37486;BME280;23341;50.296;18.960;2022-10-15T09:00:51;113062.75;;;-144.43;79.75
37486;BME280;23341;50.296;18.960;2022-10-15T09:06:02;113062.75;;;-144.43;78.48
37486;BME280;23341;50.296;18.960;2022-10-15T09:11:14;113062.75;;;-144.43;76.89
37486;BME280;23341;50.296;18.960;2022-10-15T09:16:24;113062.75;;;-144.43;75.56
37486;BME280;23341;50.296;18.960;2022-10-15T09:21:30;113062.75;;;-144.43;75.06
37486;BME280;23341;50.296;18.960;2022-10-15T09:26:46;113062.75;;;-144.43;73.44
37486;BME280;23341;50.296;18.960;2022-10-15T09:31:58;113062.75;;;-144.43;71.40
37486;BME280;23341;50.296;18.960;2022-10-15T09:37:08;113062.75;;;-144.43;71.21
37486;BME280;23341;50.296;18.960;2022-10-15T09:42:24;113062.75;;;-144.43;71.07
37486;BME280;23341;50.296;18.960;2022-10-15T09:47:34;113062.75;;;-144.43;69.77
37486;BME280;23341;50.296;18.960;2022-10-15T09:52:55;113062.75;;;-144.43;69.44
37486;BME280;23341;50.296;18.960;2022-10-15T09:58:05;113062.75;;;-144.43;69.07
37486;BME280;23341;50.296;18.960;2022-10-15T10:03:14;113062.75;;;-144.43;68.89
37486;BME280;23341;50.296;18.960;2022-10-15T10:08:20;113062.75;;;-144.43;68.34
37486;BME280;23341;50.296;18.960;2022-10-15T10:13:27;113062.75;;;-144.43;67.89
37486;BME280;23341;50.296;18.960;2022-10-15T10:18:34;113062.75;;;-144.43;67.33
37486;BME280;23341;50.296;18.960;2022-10-15T10:23:38;113062.75;;;-144.43;67.93
37486;BME280;23341;50.296;18.960;2022-10-15T10:28:45;113062.75;;;-144.43;67.64
37486;BME280;23341;50.296;18.960;2022-10-15T10:34:02;113062.75;;;-144.43;67.19
37486;BME280;23341;50.296;18.960;2022-10-15T10:39:20;113062.75;;;-144.43;66.89
37486;BME280;23341;50.296;18.960;2022-10-15T10:44:28;113062.75;;;-144.43;66.93
37486;BME280;23341;50.296;18.960;2022-10-15T10:49:35;113062.75;;;-144.43;67.52
37486;BME280;23341;50.296;18.960;2022-10-15T10:54:41;113062.75;;;-144.43;66.75
37486;BME280;23341;50.296;18.960;2022-10-15T10:59:49;113062.75;;;-144.43;66.33
37486;BME280;23341;50.296;18.960;2022-10-15T11:04:54;113062.75;;;-144.43;65.52
37486;BME280;23341;50.296;18.960;2022-10-15T11:10:02;113062.75;;;-144.43;65.42
37486;BME280;23341;50.296;18.960;2022-10-15T11:15:24;113062.75;;;-144.43;65.14
37486;BME280;23341;50.296;18.960;2022-10-15T11:20:31;113062.75;;;-144.43;64.74
37486;BME280;23341;50.296;18.960;2022-10-15T11:26:06;113062.75;;;-144.43;66.36
37486;BME280;23341;50.296;18.960;2022-10-15T11:31:23;113062.75;;;-144.43;65.79
37486;BME280;23341;50.296;18.960;2022-10-15T11:36:54;113062.75;;;-144.43;65.56
37486;BME280;23341;50.296;18.960;2022-10-15T11:42:07;113062.75;;;-144.43;65.18
37486;BME280;23341;50.296;18.960;2022-10-15T11:47:25;113062.75;;;-144.43;64.48
37486;BME280;23341;50.296;18.960;2022-10-15T11:52:53;113062.75;;;-144.43;63.97
37486;BME280;23341;50.296;18.960;2022-10-15T11:58:04;113062.75;;;-144.43;63.41
37486;BME280;23341;50.296;18.960;2022-10-15T12:03:14;113062.75;;;-144.43;65.69
37486;BME280;23341;50.296;18.960;2022-10-15T12:08:21;113062.75;;;-144.43;66.02
37486;BME280;23341;50.296;18.960;2022-10-15T12:13:35;113062.75;;;-144.43;66.22
37486;BME280;23341;50.296;18.960;2022-10-15T12:18:44;113062.75;;;-144.43;69.46
37486;BME280;23341;50.296;18.960;2022-10-15T12:23:52;113062.75;;;-144.43;74.62
37486;BME280;23341;50.296;18.960;2022-10-15T12:28:56;113062.75;;;-144.43;75.08
37486;BME280;23341;50.296;18.960;2022-10-15T12:34:04;113062.75;;;-144.43;73.54
37486;BME280;23341;50.296;18.960;2022-10-15T12:39:22;113062.75;;;-144.43;70.17
37486;BME280;23341;50.296;18.960;2022-10-15T12:44:47;113062.75;;;-144.43;68.95
37486;BME280;23341;50.296;18.960;2022-10-15T12:50:01;113062.75;;;-144.43;66.53
37486;BME280;23341;50.296;18.960;2022-10-15T12:55:22;113062.75;;;-144.43;65.36
37486;BME280;23341;50.296;18.960;2022-10-15T13:00:36;113062.75;;;-144.43;64.61
37486;BME280;23341;50.296;18.960;2022-10-15T13:05:41;113062.75;;;-144.43;62.84
37486;BME280;23341;50.296;18.960;2022-10-15T13:10:49;113062.75;;;-144.43;64.92
37486;BME280;23341;50.296;18.960;2022-10-15T13:15:56;113062.75;;;-144.43;64.24
37486;BME280;23341;50.296;18.960;2022-10-15T13:21:01;113062.75;;;-144.43;64.12
37486;BME280;23341;50.296;18.960;2022-10-15T13:26:17;113062.75;;;-144.43;64.64
37486;BME280;23341;50.296;18.960;2022-10-15T13:31:25;113062.75;;;-144.43;64.29
37486;BME280;23341;50.296;18.960;2022-10-15T13:36:33;113062.75;;;-144.43;63.64
37486;BME280;23341;50.296;18.960;2022-10-15T13:41:38;113062.75;;;-144.43;63.10
37486;BME280;23341;50.296;18.960;2022-10-15T13:46:42;113062.75;;;-144.43;63.85
37486;BME280;23341;50.296;18.960;2022-10-15T13:51:48;113062.75;;;-144.43;64.17
37486;BME280;23341;50.296;18.960;2022-10-15T13:56:55;113062.75;;;-144.43;64.70
37486;BME280;23341;50.296;18.960;2022-10-15T14:02:01;113062.75;;;-144.43;64.99
37486;BME280;23341;50.296;18.960;2022-10-15T14:07:21;113062.75;;;-144.43;65.61
37486;BME280;23341;50.296;18.960;2022-10-15T14:12:26;113062.75;;;-144.43;64.75
37486;BME280;23341;50.296;18.960;2022-10-15T14:17:29;113062.75;;;-144.43;65.38
37486;BME280;23341;50.296;18.960;2022-10-15T14:22:34;113062.75;;;-144.43;65.69
37486;BME280;23341;50.296;18.960;2022-10-15T14:27:44;113062.75;;;-144.43;66.00
37486;BME280;23341;50.296;18.960;2022-10-15T14:32:48;113062.75;;;-144.43;66.32
37486;BME280;23341;50.296;18.960;2022-10-15T14:38:00;113062.75;;;-144.43;67.04
37486;BME280;23341;50.296;18.960;2022-10-15T14:43:06;113062.75;;;-144.43;66.92
37486;BME280;23341;50.296;18.960;2022-10-15T14:48:20;113062.75;;;-144.43;67.12
37486;BME280;23341;50.296;18.960;2022-10-15T14:53:28;113062.75;;;-144.43;67.29
37486;BME280;23341;50.296;18.960;2022-10-15T14:58:36;113062.75;;;-144.43;67.44
37486;BME280;23341;50.296;18.960;2022-10-15T15:03:41;113062.75;;;-144.43;67.33
37486;BME280;23341;50.296;18.960;2022-10-15T15:08:45;113062.75;;;-144.43;67.21
37486;BME280;23341;50.296;18.960;2022-10-15T15:13:50;113062.75;;;-144.43;67.33
37486;BME280;23341;50.296;18.960;2022-10-15T15:18:55;113062.75;;;-144.43;67.36
37486;BME280;23341;50.296;18.960;2022-10-15T15:23:59;113062.75;;;-144.43;67.20
37486;BME280;23341;50.296;18.960;2022-10-15T15:29:10;113062.75;;;-144.43;67.21
37486;BME280;23341;50.296;18.960;2022-10-15T15:34:15;113062.75;;;-144.43;67.35
37486;BME280;23341;50.296;18.960;2022-10-15T15:39:19;113062.75;;;-144.43;67.62
37486;BME280;23341;50.296;18.960;2022-10-15T15:44:24;113062.75;;;-144.43;67.98
37486;BME280;23341;50.296;18.960;2022-10-15T15:49:27;113062.75;;;-144.43;68.44
37486;BME280;23341;50.296;18.960;2022-10-15T15:54:31;113062.75;;;-144.43;68.95
37486;BME280;23341;50.296;18.960;2022-10-15T15:59:35;113062.75;;;-144.43;69.12
37486;BME280;23341;50.296;18.960;2022-10-15T16:04:39;113062.75;;;-144.43;69.38
37486;BME280;23341;50.296;18.960;2022-10-15T16:09:42;113062.75;;;-144.43;69.44
37486;BME280;23341;50.296;18.960;2022-10-15T16:14:48;113062.75;;;-144.43;70.23
37486;BME280;23341;50.296;18.960;2022-10-15T16:19:51;113062.75;;;-144.43;70.26
37486;BME280;23341;50.296;18.960;2022-10-15T16:24:55;113062.75;;;-144.43;70.01
37486;BME280;23341;50.296;18.960;2022-10-15T16:29:59;113062.75;;;-144.43;71.18
37486;BME280;23341;50.296;18.960;2022-10-15T16:35:04;113062.75;;;-144.43;71.75
37486;BME280;23341;50.296;18.960;2022-10-15T16:40:08;113062.75;;;-144.43;71.88
37486;BME280;23341;50.296;18.960;2022-10-15T16:45:13;113062.75;;;-144.43;72.25
37486;BME280;23341;50.296;18.960;2022-10-15T16:50:17;113062.75;;;-144.43;73.21
37486;BME280;23341;50.296;18.960;2022-10-15T16:55:20;113062.75;;;-144.43;72.77
37486;BME280;23341;50.296;18.960;2022-10-15T17:00:25;113062.75;;;-144.43;73.34
37486;BME280;23341;50.296;18.960;2022-10-15T17:05:30;113062.75;;;-144.43;73.28
37486;BME280;23341;50.296;18.960;2022-10-15T17:10:33;113062.75;;;-144.43;73.51
37486;BME280;23341;50.296;18.960;2022-10-15T17:15:38;113062.75;;;-144.43;72.26
37486;BME280;23341;50.296;18.960;2022-10-15T17:20:43;113062.75;;;-144.43;73.79
37486;BME280;23341;50.296;18.960;2022-10-15T17:25:46;113062.75;;;-144.43;73.34
37486;BME280;23341;50.296;18.960;2022-10-15T17:30:51;113062.75;;;-144.43;73.44
37486;BME280;23341;50.296;18.960;2022-10-15T17:35:55;113062.75;;;-144.43;75.01
37486;BME280;23341;50.296;18.960;2022-10-15T17:40:59;113062.75;;;-144.43;75.84
37486;BME280;23341;50.296;18.960;2022-10-15T17:46:06;113062.75;;;-144.43;77.48
37486;BME280;23341;50.296;18.960;2022-10-15T17:51:12;113062.75;;;-144.43;77.22
37486;BME280;23341;50.296;18.960;2022-10-15T17:56:18;113062.75;;;-144.43;77.49
37486;BME280;23341;50.296;18.960;2022-10-15T18:01:25;113062.75;;;-144.43;77.67
37486;BME280;23341;50.296;18.960;2022-10-15T18:06:47;113062.75;;;-144.43;78.23
37486;BME280;23341;50.296;18.960;2022-10-15T18:11:59;113062.75;;;-144.43;77.50
37486;BME280;23341;50.296;18.960;2022-10-15T18:17:06;113062.75;;;-144.43;76.91
37486;BME280;23341;50.296;18.960;2022-10-15T18:22:09;113062.75;;;-144.43;75.67
37486;BME280;23341;50.296;18.960;2022-10-15T18:27:13;113062.75;;;-144.43;75.65
37486;BME280;23341;50.296;18.960;2022-10-15T18:32:18;113062.75;;;-144.43;76.81
37486;BME280;23341;50.296;18.960;2022-10-15T18:37:21;113062.75;;;-144.43;77.98
37486;BME280;23341;50.296;18.960;2022-10-15T18:42:25;113062.75;;;-144.43;78.48
37486;BME280;23341;50.296;18.960;2022-10-15T18:47:30;113062.75;;;-144.43;78.75
37486;BME280;23341;50.296;18.960;2022-10-15T18:52:34;113062.75;;;-144.43;78.43
37486;BME280;23341;50.296;18.960;2022-10-15T18:57:41;113062.75;;;-144.43;78.96
37486;BME280;23341;50.296;18.960;2022-10-15T19:02:46;113062.75;;;-144.43;79.32
37486;BME280;23341;50.296;18.960;2022-10-15T19:07:49;113062.75;;;-144.43;79.07
37486;BME280;23341;50.296;18.960;2022-10-15T19:12:56;113062.75;;;-144.43;78.77
37486;BME280;23341;50.296;18.960;2022-10-15T19:18:03;113062.75;;;-144.43;79.68
37486;BME280;23341;50.296;18.960;2022-10-15T19:23:12;113062.75;;;-144.43;79.32
37486;BME280;23341;50.296;18.960;2022-10-15T19:28:15;113062.75;;;-144.43;79.36
37486;BME280;23341;50.296;18.960;2022-10-15T19:33:21;113062.75;;;-144.43;78.34
37486;BME280;23341;50.296;18.960;2022-10-15T19:38:25;113062.75;;;-144.43;79.18
37486;BME280;23341;50.296;18.960;2022-10-15T19:43:28;113062.75;;;-144.43;79.32
37486;BME280;23341;50.296;18.960;2022-10-15T19:48:34;113062.75;;;-144.43;78.34
37486;BME280;23341;50.296;18.960;2022-10-15T19:53:38;113062.75;;;-144.43;79.28
37486;BME280;23341;50.296;18.960;2022-10-15T19:58:41;113062.75;;;-144.43;78.96
37486;BME280;23341;50.296;18.960;2022-10-15T20:03:46;113062.75;;;-144.43;78.86
37486;BME280;23341;50.296;18.960;2022-10-15T20:08:50;113062.75;;;-144.43;78.96
37486;BME280;23341;50.296;18.960;2022-10-15T20:13:53;113062.75;;;-144.43;80.00
37486;BME280;23341;50.296;18.960;2022-10-15T20:18:59;113062.75;;;-144.43;79.86
37486;BME280;23341;50.296;18.960;2022-10-15T20:24:03;113062.75;;;-144.43;79.01
37486;BME280;23341;50.296;18.960;2022-10-15T20:29:07;113062.75;;;-144.43;78.39
37486;BME280;23341;50.296;18.960;2022-10-15T20:34:11;113062.75;;;-144.43;78.64
37486;BME280;23341;50.296;18.960;2022-10-15T20:39:15;113062.75;;;-144.43;79.21
37486;BME280;23341;50.296;18.960;2022-10-15T20:44:18;113062.75;;;-144.43;78.98
37486;BME280;23341;50.296;18.960;2022-10-15T20:49:26;113062.75;;;-144.43;79.18
37486;BME280;23341;50.296;18.960;2022-10-15T20:54:31;113062.75;;;-144.43;80.02
37486;BME280;23341;50.296;18.960;2022-10-15T20:59:35;113062.75;;;-144.43;81.27
37486;BME280;23341;50.296;18.960;2022-10-15T21:04:40;113062.75;;;-144.43;81.06
37486;BME280;23341;50.296;18.960;2022-10-15T21:09:43;113062.75;;;-144.43;80.87
37486;BME280;23341;50.296;18.960;2022-10-15T21:14:47;113062.75;;;-144.43;82.05
37486;BME280;23341;50.296;18.960;2022-10-15T21:19:52;113062.75;;;-144.43;82.10
37486;BME280;23341;50.296;18.960;2022-10-15T21:24:55;113062.75;;;-144.43;82.89
37486;BME280;23341;50.296;18.960;2022-10-15T21:29:59;113062.75;;;-144.43;83.25
37486;BME280;23341;50.296;18.960;2022-10-15T21:35:04;113062.75;;;-144.43;83.50
37486;BME280;23341;50.296;18.960;2022-10-15T21:40:09;113062.75;;;-144.43;83.15
37486;BME280;23341;50.296;18.960;2022-10-15T21:45:13;113062.75;;;-144.43;82.71
37486;BME280;23341;50.296;18.960;2022-10-15T21:50:18;113062.75;;;-144.43;85.04
37486;BME280;23341;50.296;18.960;2022-10-15T21:55:21;113062.75;;;-144.43;85.66
37486;BME280;23341;50.296;18.960;2022-10-15T22:00:30;113062.75;;;-144.43;86.63
37486;BME280;23341;50.296;18.960;2022-10-15T22:05:35;113062.75;;;-144.43;87.22
37486;BME280;23341;50.296;18.960;2022-10-15T22:10:38;113062.75;;;-144.43;87.62
37486;BME280;23341;50.296;18.960;2022-10-15T22:15:42;113062.75;;;-144.43;87.08
37486;BME280;23341;50.296;18.960;2022-10-15T22:20:47;113062.75;;;-144.43;87.88
37486;BME280;23341;50.296;18.960;2022-10-15T22:25:56;113062.75;;;-144.43;88.94
37486;BME280;23341;50.296;18.960;2022-10-15T22:31:03;113062.75;;;-144.43;89.91
37486;BME280;23341;50.296;18.960;2022-10-15T22:36:12;113062.75;;;-144.43;90.11
37486;BME280;23341;50.296;18.960;2022-10-15T22:41:16;113062.75;;;-144.43;90.34
37486;BME280;23341;50.296;18.960;2022-10-15T22:46:19;113062.75;;;-144.43;91.14
37486;BME280;23341;50.296;18.960;2022-10-15T22:51:24;113062.75;;;-144.43;91.08
37486;BME280;23341;50.296;18.960;2022-10-15T22:56:28;113062.75;;;-144.43;92.53
37486;BME280;23341;50.296;18.960;2022-10-15T23:01:32;113062.75;;;-144.43;93.55
37486;BME280;23341;50.296;18.960;2022-10-15T23:06:37;113062.75;;;-144.43;93.94
37486;BME280;23341;50.296;18.960;2022-10-15T23:11:41;113062.75;;;-144.43;94.17
37486;BME280;23341;50.296;18.960;2022-10-15T23:16:45;113062.75;;;-144.43;95.18
37486;BME280;23341;50.296;18.960;2022-10-15T23:21:51;113062.75;;;-144.43;95.70
37486;BME280;23341;50.296;18.960;2022-10-15T23:26:57;113062.75;;;-144.43;95.99
37486;BME280;23341;50.296;18.960;2022-10-15T23:32:00;113062.75;;;-144.43;95.98
37486;BME280;23341;50.296;18.960;2022-10-15T23:37:05;113062.75;;;-144.43;96.03
37486;BME280;23341;50.296;18.960;2022-10-15T23:42:08;113062.75;;;-144.43;95.80
37486;BME280;23341;50.296;18.960;2022-10-15T23:47:11;113062.75;;;-144.43;94.41
37486;BME280;23341;50.296;18.960;2022-10-15T23:52:16;113062.75;;;-144.43;94.80
37486;BME280;23341;50.296;18.960;2022-10-15T23:57:19;113062.75;;;-144.43;95.42
